KMPZ

Mount Pleasant Municipal Airport

Mount Pleasant, Iowa, USA
METAR KMPZ 230755Z AUTO 26009KT 2 1/2SM +DZ OVC004 03/03 A3013 RMK AO2 P0001
Observed Flight Rules
Feb-23 @ 07:55 UTC (23 minutes ago) Instrument Flight Rules
Wind Visibility Clouds Conditions
260° at 9 knots 2 1/2 miles
  • Overcast at 400' AGL
  • Heavy Drizzle
Temperatures Readings Precipitation
Current 3°C / 37°F
Dewpoint 3°C / 37°F
Humidity 100%
Altimeter 30.13" Hg
Pressure 1020 hPa
Elevation 224
Current Rain 0.01
METAR KMPZ 230755Z AUTO 26009KT 2 1/2SM +DZ OVC004 03/03 A3013 RMK AO2 P0001
Observed Flight Rules
Feb-23 @ 07:55 UTC
(23 minutes ago)
LIFR
Wind Visibility
260° at 9 knots 2 1/2 miles
Clouds
  • Overcast at 400' AGL
Conditions
  • Heavy Drizzle
Temperature Dewpoint
3°C / 37°F 3°C / 37°F
Humidity Altimeter Pressure
100% 30.13" Hg 1020 hPa
Current Rain
0.01